Terminal Aerodrome Forecast
Issued by NWS Grand Forks, ND

Home | Current Version | Previous Version | Graphics & Text | Print | Product List | Glossary On
Versions: 1 2 3 4 5 6 7 8 9 10 11 12 13 14 15 16 17 18 19
000
FTUS43 KFGF 230500
TAFFAR
TAF
KFAR 230520Z 2306/2406 12010KT P6SM BKN250
     FM230900 14014KT P6SM BKN060
     FM231400 15022G31KT 5SM -RA OVC040
     FM231900 12027G35KT P6SM VCSH BKN040
     FM240200 12017KT P6SM VCSH BKN025=

USA.gov is the U.S. government's official web portal to all federal, state and local government web resources and services.